Time;durP1;ratioP1;P1;durP2;ratioP2;P2;SDS_P1;SDS_P2;PMS_P1;PMS_P2;Temp;Humidity;BMP_temperature;BMP_pressure;BME280_temperature;BME280_humidity;BME280_pressure;Samples;Min_cycle;Max_cycle;Signal;HPM_P1;HPM_P2
2021/09/04 00:01:14;;;;;;;8.02;6.80;;;;;;;18.51;69.33;101074.09;5069359;28;20066;-54
2021/09/04 00:03:40;;;;;;;7.30;6.60;;;;;;;18.50;69.29;101080.38;5072820;28;20039;-52
2021/09/04 00:06:06;;;;;;;7.32;6.63;;;;;;;18.49;69.31;101073.25;5069838;28;20090;-52
2021/09/04 00:08:32;;;;;;;7.32;6.57;;;;;;;18.49;69.34;101068.78;5070332;28;20029;-56
2021/09/04 00:10:58;;;;;;;8.30;6.60;;;;;;;18.46;69.46;101077.78;5071448;28;20100;-52
2021/09/04 00:13:24;;;;;;;7.45;6.40;;;;;;;18.48;69.34;101077.75;5057150;28;20103;-52
2021/09/04 00:15:49;;;;;;;8.55;7.65;;;;;;;18.46;69.26;101072.47;5056501;28;20021;-52
2021/09/04 00:18:15;;;;;;;6.88;6.18;;;;;;;18.45;69.25;101073.34;5070055;28;20427;-52
2021/09/04 00:20:41;;;;;;;8.02;7.22;;;;;;;18.46;69.28;101068.91;5070287;28;20021;-54
2021/09/04 00:23:07;;;;;;;7.82;6.93;;;;;;;18.45;69.10;101072.50;5084501;22;20047;-53
2021/09/04 00:25:33;;;;;;;7.28;6.47;;;;;;;18.44;69.14;101060.94;5081798;28;20077;-53
2021/09/04 00:27:59;;;;;;;7.95;7.25;;;;;;;18.44;69.24;101066.28;5087891;28;20521;-53
2021/09/04 00:30:24;;;;;;;8.00;7.18;;;;;;;18.44;69.31;101065.44;5072319;28;20028;-53
2021/09/04 00:32:50;;;;;;;7.47;6.78;;;;;;;18.44;69.28;101065.44;5086909;28;20040;-53
2021/09/04 00:35:16;;;;;;;8.48;7.72;;;;;;;18.42;69.15;101057.47;5073833;28;20031;-53
2021/09/04 00:37:42;;;;;;;8.43;7.45;;;;;;;18.42;69.06;101065.47;5072014;28;20025;-53
2021/09/04 00:40:09;;;;;;;7.63;6.75;;;;;;;18.40;69.28;101063.78;5076576;28;20054;-53
2021/09/04 00:42:35;;;;;;;9.30;7.47;;;;;;;18.40;69.01;101063.78;5076033;28;20016;-53
2021/09/04 00:45:00;;;;;;;8.40;7.40;;;;;;;18.40;69.09;101063.78;5076741;28;20039;-52
2021/09/04 00:47:26;;;;;;;8.65;7.75;;;;;;;18.40;69.08;101063.78;5073509;28;20089;-53
2021/09/04 00:49:52;;;;;;;8.25;7.45;;;;;;;18.39;69.00;101059.38;5062547;28;20023;-53
2021/09/04 00:52:18;;;;;;;7.43;6.82;;;;;;;18.39;68.88;101060.25;5080301;28;20424;-53
2021/09/04 00:54:44;;;;;;;8.30;7.40;;;;;;;18.38;69.10;101062.97;5080796;28;20028;-53
2021/09/04 00:57:10;;;;;;;7.45;6.47;;;;;;;18.37;69.17;101069.25;5074393;28;20035;-53
2021/09/04 00:59:35;;;;;;;8.13;7.38;;;;;;;18.36;69.06;101067.47;5072069;28;20019;-53
2021/09/04 01:02:01;;;;;;;8.52;7.72;;;;;;;18.36;68.92;101059.47;5075628;28;20024;-53
2021/09/04 01:04:27;;;;;;;8.10;7.07;;;;;;;18.35;68.97;101061.28;5078859;28;20111;-53
2021/09/04 01:06:52;;;;;;;8.55;7.72;;;;;;;18.34;69.16;101054.19;5072586;28;20032;-53
2021/09/04 01:09:17;;;;;;;8.60;7.80;;;;;;;18.34;69.12;101051.50;5069780;28;20042;-53
2021/09/04 01:11:43;;;;;;;12.13;8.15;;;;;;;18.32;68.81;101059.59;5074821;28;20058;-53
2021/09/04 01:14:08;;;;;;;7.80;7.00;;;;;;;18.31;69.02;101063.19;5070714;28;20028;-53
2021/09/04 01:16:36;;;;;;;7.72;7.03;;;;;;;18.31;68.91;101059.66;5079919;28;20022;-53
2021/09/04 01:19:02;;;;;;;8.65;7.75;;;;;;;18.30;68.79;101063.22;5076399;28;20020;-53
2021/09/04 01:21:27;;;;;;;8.40;7.60;;;;;;;18.32;68.82;101066.72;5078161;28;20389;-53
2021/09/04 01:23:53;;;;;;;7.82;7.05;;;;;;;18.30;69.05;101068.56;5075616;28;20032;-53
2021/09/04 01:26:18;;;;;;;8.27;7.47;;;;;;;18.27;68.83;101058.88;5056734;28;20085;-52
2021/09/04 01:28:44;;;;;;;8.07;7.28;;;;;;;18.28;68.91;101057.09;5067438;28;20107;-53
2021/09/04 01:31:09;;;;;;;8.00;7.20;;;;;;;18.27;68.95;101053.53;5073490;28;20025;-53
2021/09/04 01:33:42;;;;;;;8.38;7.40;;;;;;;18.26;68.96;101057.13;5079885;28;20143;-52
2021/09/04 01:36:07;;;;;;;8.10;7.30;;;;;;;18.25;68.96;101052.75;5056178;28;20021;-53
2021/09/04 01:38:32;;;;;;;7.97;7.20;;;;;;;18.25;68.97;101054.53;5077831;28;20050;-52
2021/09/04 01:40:58;;;;;;;8.23;7.43;;;;;;;18.25;68.97;101055.41;5073082;28;20033;-53
2021/09/04 01:43:23;;;;;;;9.43;8.52;;;;;;;18.24;69.12;101058.97;5075711;28;20527;-52
2021/09/04 01:45:48;;;;;;;7.82;7.10;;;;;;;18.24;69.03;101063.47;5060449;28;20033;-53
2021/09/04 01:48:14;;;;;;;8.52;7.53;;;;;;;18.23;69.09;101057.25;5073627;28;20055;-53
2021/09/04 01:50:40;;;;;;;7.30;6.60;;;;;;;18.23;68.70;101061.72;5074625;28;20029;-53
2021/09/04 01:53:06;;;;;;;7.20;6.50;;;;;;;18.22;68.95;101063.50;5060111;28;20033;-53
2021/09/04 01:55:31;;;;;;;8.85;7.38;;;;;;;18.20;69.07;101063.56;5070560;28;20016;-53
2021/09/04 01:57:57;;;;;;;7.70;7.00;;;;;;;18.20;69.11;101063.56;5070334;28;20032;-53
2021/09/04 02:00:23;;;;;;;7.93;7.22;;;;;;;18.19;68.97;101056.50;5057619;28;20534;-56
2021/09/04 02:02:49;;;;;;;8.25;7.38;;;;;;;18.19;68.90;101058.28;5074393;28;20024;-52
2021/09/04 02:05:15;;;;;;;8.70;7.85;;;;;;;18.18;68.94;101060.06;5072394;28;20134;-53
2021/09/04 02:07:41;;;;;;;8.13;7.32;;;;;;;18.17;68.97;101058.34;5071037;28;20029;-53
2021/09/04 02:10:07;;;;;;;9.18;7.80;;;;;;;18.17;68.94;101062.81;5070394;28;20025;-53
2021/09/04 02:12:33;;;;;;;8.68;7.60;;;;;;;18.15;68.96;101060.19;5072145;28;20130;-52
2021/09/04 02:14:59;;;;;;;8.45;7.53;;;;;;;18.15;68.89;101064.66;5078593;28;20032;-53
2021/09/04 02:17:25;;;;;;;8.73;7.70;;;;;;;18.15;68.73;101056.66;5072930;28;20044;-53
2021/09/04 02:19:51;;;;;;;8.73;7.82;;;;;;;18.15;68.82;101048.63;5075109;28;20021;-53
2021/09/04 02:22:17;;;;;;;9.02;8.13;;;;;;;18.15;68.75;101053.97;5075474;28;20052;-53
2021/09/04 02:24:43;;;;;;;7.90;7.13;;;;;;;18.14;68.94;101057.59;5067168;28;20095;-53
2021/09/04 02:27:09;;;;;;;8.20;7.50;;;;;;;18.13;68.93;101062.03;5074686;28;20032;-53
2021/09/04 02:29:34;;;;;;;9.02;8.10;;;;;;;18.12;68.77;101054.06;5071635;28;20049;-53
2021/09/04 02:32:00;;;;;;;8.65;7.75;;;;;;;18.12;68.86;101062.97;5068303;28;20065;-53
2021/09/04 02:34:26;;;;;;;9.18;7.57;;;;;;;18.10;68.74;101055.94;5079137;28;20050;-53
2021/09/04 02:36:52;;;;;;;7.90;7.10;;;;;;;18.10;68.64;101061.28;5074640;28;20047;-53
2021/09/04 02:39:18;;;;;;;8.80;7.90;;;;;;;18.08;68.73;101059.47;5069843;28;20020;-53
2021/09/04 02:41:44;;;;;;;8.55;7.47;;;;;;;18.08;68.71;101059.47;5073261;28;20032;-51
2021/09/04 02:44:09;;;;;;;11.73;8.27;;;;;;;18.08;68.75;101061.31;5054092;28;20024;-51
2021/09/04 02:46:35;;;;;;;10.15;7.80;;;;;;;18.06;68.76;101053.34;5070199;28;20043;-51
2021/09/04 02:49:01;;;;;;;8.57;7.68;;;;;;;18.06;68.67;101061.34;5039407;28;20044;-55
2021/09/04 02:51:27;;;;;;;8.68;7.78;;;;;;;18.07;68.73;101059.53;5069988;28;20032;-53
2021/09/04 02:53:53;;;;;;;9.10;8.23;;;;;;;18.05;68.84;101058.72;5068424;28;20111;-52
2021/09/04 02:56:19;;;;;;;9.43;8.30;;;;;;;18.05;68.73;101070.28;5070540;28;20016;-52
2021/09/04 02:58:45;;;;;;;8.70;7.80;;;;;;;18.04;68.81;101060.50;5068716;28;20474;-53
2021/09/04 03:01:10;;;;;;;9.63;8.63;;;;;;;18.05;68.84;101058.72;5069482;28;20021;-54
2021/09/04 03:03:36;;;;;;;11.38;9.40;;;;;;;18.05;69.04;101061.41;5072493;28;20039;-51
2021/09/04 03:06:02;;;;;;;9.63;8.73;;;;;;;18.04;68.84;101063.19;5057300;28;20032;-51
2021/09/04 03:08:29;;;;;;;9.73;8.70;;;;;;;18.03;68.77;101066.78;5072603;28;20100;-52
2021/09/04 03:10:55;;;;;;;10.45;8.55;;;;;;;18.03;68.61;101065.91;5057579;28;20051;-52
2021/09/04 03:13:21;;;;;;;8.82;7.50;;;;;;;18.02;68.90;101064.16;5070257;28;20359;-53
2021/09/04 03:15:46;;;;;;;9.35;7.78;;;;;;;18.01;68.85;101068.63;5050457;28;20363;-53
2021/09/04 03:18:13;;;;;;;12.07;9.50;;;;;;;18.01;68.86;101070.44;5071805;28;20758;-53
2021/09/04 03:20:39;;;;;;;10.68;9.57;;;;;;;18.01;69.05;101063.28;5075649;28;20047;-53
2021/09/04 03:23:05;;;;;;;9.25;8.25;;;;;;;18.01;69.52;101071.28;5059492;28;20040;-53
2021/09/04 03:25:31;;;;;;;11.80;9.15;;;;;;;17.98;69.00;101063.41;5074791;28;20103;-53
2021/09/04 03:27:57;;;;;;;10.60;8.43;;;;;;;17.97;69.23;101072.31;5066503;28;21028;-53
2021/09/04 03:30:23;;;;;;;10.10;8.55;;;;;;;17.98;69.23;101070.53;5052486;28;20111;-53
2021/09/04 03:32:49;;;;;;;11.13;9.57;;;;;;;17.98;69.17;101066.09;5070262;28;20028;-53
2021/09/04 03:35:15;;;;;;;13.40;9.57;;;;;;;17.96;69.19;101070.59;5072001;28;20103;-53
2021/09/04 03:37:41;;;;;;;10.30;9.07;;;;;;;17.96;69.33;101073.25;5070117;28;20020;-52
2021/09/04 03:40:08;;;;;;;10.75;9.20;;;;;;;17.96;69.16;101070.59;5069903;28;20037;-52
2021/09/04 03:42:33;;;;;;;11.77;9.88;;;;;;;17.94;69.34;101073.31;5070865;28;20025;-52
2021/09/04 03:44:59;;;;;;;13.23;9.52;;;;;;;17.94;69.25;101075.13;5071581;28;20020;-52
2021/09/04 03:47:26;;;;;;;12.07;9.82;;;;;;;17.94;69.13;101077.78;5056875;28;20157;-52
2021/09/04 03:49:52;;;;;;;11.30;10.07;;;;;;;17.93;69.20;101076.03;5074731;28;20066;-51
2021/09/04 03:52:18;;;;;;;10.88;9.35;;;;;;;17.92;69.22;101076.94;5068296;28;20098;-52
2021/09/04 03:54:44;;;;;;;10.70;9.25;;;;;;;17.93;69.07;101086.69;5070127;28;20036;-51
2021/09/04 03:57:09;;;;;;;10.50;9.07;;;;;;;17.91;69.21;101078.75;5068199;28;20031;-53
2021/09/04 03:59:36;;;;;;;11.48;9.70;;;;;;;17.92;69.28;101090.28;5069691;28;20040;-51
2021/09/04 04:02:02;;;;;;;11.35;9.63;;;;;;;17.91;69.33;101083.22;5052543;28;20474;-52
2021/09/04 04:04:28;;;;;;;10.55;9.20;;;;;;;17.90;69.23;101079.66;5060775;28;20134;-52
2021/09/04 04:06:53;;;;;;;11.02;9.35;;;;;;;17.90;69.25;101086.78;5072464;28;20558;-53
2021/09/04 04:09:19;;;;;;;11.15;9.75;;;;;;;17.89;69.19;101079.72;5065741;28;20418;-51
2021/09/04 04:11:45;;;;;;;12.20;9.45;;;;;;;17.88;69.28;101084.19;5073664;28;20027;-51
2021/09/04 04:14:11;;;;;;;10.15;9.02;;;;;;;17.87;69.27;101082.44;5069941;28;20021;-52
2021/09/04 04:16:37;;;;;;;14.18;9.98;;;;;;;17.87;69.19;101079.75;5069500;28;20016;-51
2021/09/04 04:19:03;;;;;;;11.68;10.45;;;;;;;17.88;69.64;101084.19;5056211;28;20085;-51
2021/09/04 04:21:29;;;;;;;15.25;10.25;;;;;;;17.86;69.47;101082.47;5075932;28;20036;-52
2021/09/04 04:23:55;;;;;;;12.52;10.38;;;;;;;17.87;69.52;101084.25;5069195;28;20112;-52
2021/09/04 04:26:21;;;;;;;12.60;10.05;;;;;;;17.86;69.47;101079.81;5039535;28;20153;-51
2021/09/04 04:28:47;;;;;;;12.38;10.55;;;;;;;17.87;69.48;101076.25;5070767;28;20517;-51
2021/09/04 04:31:13;;;;;;;11.40;9.68;;;;;;;17.88;69.44;101077.97;5068552;28;20027;-54
2021/09/04 04:33:38;;;;;;;15.85;11.35;;;;;;;17.88;69.53;101077.97;5074234;28;20017;-53
2021/09/04 04:36:04;;;;;;;11.13;10.02;;;;;;;17.83;69.43;101063.00;5068812;28;20058;-51
2021/09/04 04:38:30;;;;;;;13.65;10.27;;;;;;;17.82;69.52;101074.59;5068299;28;20025;-51
2021/09/04 04:40:56;;;;;;;12.52;10.45;;;;;;;17.82;69.63;101082.63;5070384;28;20039;-51
2021/09/04 04:43:22;;;;;;;12.73;9.52;;;;;;;17.83;69.73;101079.00;5070643;28;20048;-53
2021/09/04 04:45:48;;;;;;;12.63;10.35;;;;;;;17.82;69.65;101081.72;5066970;28;20100;-52
2021/09/04 04:48:15;;;;;;;11.60;10.40;;;;;;;17.82;69.92;101079.06;5072784;28;20032;-52
2021/09/04 04:50:41;;;;;;;12.60;10.55;;;;;;;17.80;69.66;101078.22;5066876;28;20025;-53
2021/09/04 04:53:07;;;;;;;11.80;10.45;;;;;;;17.80;69.81;101075.56;5072386;28;20028;-53
2021/09/04 04:55:33;;;;;;;14.35;11.45;;;;;;;17.80;69.72;101087.09;5062104;28;20151;-52
2021/09/04 04:57:58;;;;;;;13.80;10.80;;;;;;;17.79;69.71;101088.03;5072519;28;20027;-53
2021/09/04 05:00:24;;;;;;;14.65;10.65;;;;;;;17.79;69.81;101096.03;5067971;28;20032;-53
2021/09/04 05:02:50;;;;;;;12.63;9.73;;;;;;;17.77;69.71;101089.03;5064868;28;20429;-52
2021/09/04 05:05:16;;;;;;;11.13;9.93;;;;;;;17.77;69.87;101089.88;5060192;28;20450;-52
2021/09/04 05:07:42;;;;;;;14.10;10.20;;;;;;;17.77;69.72;101089.03;5069143;28;20482;-52
2021/09/04 05:10:09;;;;;;;14.52;11.25;;;;;;;17.76;69.90;101089.91;5068076;28;20028;-52
2021/09/04 05:12:34;;;;;;;14.02;10.90;;;;;;;17.76;69.83;101092.59;5053033;28;20037;-50
2021/09/04 05:15:00;;;;;;;14.13;10.40;;;;;;;17.74;69.74;101095.31;5073089;28;20508;-51
2021/09/04 05:17:26;;;;;;;11.98;10.60;;;;;;;17.73;70.05;101090.91;5075149;28;20034;-52
2021/09/04 05:19:52;;;;;;;13.35;11.05;;;;;;;17.74;69.74;101092.63;5075933;28;20033;-52
2021/09/04 05:22:18;;;;;;;12.68;10.73;;;;;;;17.73;70.07;101090.00;5057831;28;20055;-52
2021/09/04 05:24:44;;;;;;;17.48;10.95;;;;;;;17.74;69.96;101091.78;5071901;28;20436;-51
2021/09/04 05:27:09;;;;;;;11.63;10.48;;;;;;;17.72;69.88;101094.50;5053529;28;20031;-52
2021/09/04 05:29:35;;;;;;;13.70;10.48;;;;;;;17.72;70.00;101098.94;5070220;28;20043;-52
2021/09/04 05:32:01;;;;;;;12.60;10.68;;;;;;;17.72;69.90;101089.16;5034642;28;20020;-52
2021/09/04 05:34:27;;;;;;;12.75;10.25;;;;;;;17.70;69.82;101088.31;5044982;28;20039;-52
2021/09/04 05:36:52;;;;;;;11.95;10.38;;;;;;;17.70;69.96;101086.53;5068624;28;20047;-52
2021/09/04 05:39:18;;;;;;;14.27;11.40;;;;;;;17.70;69.96;101096.31;5056731;28;20016;-51
2021/09/04 05:41:44;;;;;;;14.65;11.10;;;;;;;17.68;69.99;101093.72;5069308;28;20413;-51
2021/09/04 05:44:10;;;;;;;15.80;10.25;;;;;;;17.68;69.97;101098.19;5066357;28;20386;-52
2021/09/04 05:46:36;;;;;;;15.07;11.00;;;;;;;17.69;70.09;101094.59;5069363;28;20037;-51
2021/09/04 05:49:01;;;;;;;13.20;11.27;;;;;;;17.68;69.79;101095.53;5073298;28;20429;-52
2021/09/04 05:51:27;;;;;;;14.13;11.00;;;;;;;17.69;69.76;101099.91;5054739;28;20407;-52
2021/09/04 05:53:53;;;;;;;13.45;11.65;;;;;;;17.68;69.81;101099.03;5068893;28;20032;-52
2021/09/04 05:56:19;;;;;;;13.65;10.57;;;;;;;17.65;70.14;101093.84;5071534;28;20143;-52
2021/09/04 05:58:44;;;;;;;13.45;10.98;;;;;;;17.65;70.09;101099.16;5060357;28;20034;-51
2021/09/04 06:01:10;;;;;;;15.52;11.02;;;;;;;17.66;70.12;101100.00;5061443;28;20033;-52
2021/09/04 06:03:37;;;;;;;12.70;10.35;;;;;;;17.66;70.22;101100.00;5052786;28;20066;-52
2021/09/04 06:06:03;;;;;;;13.85;11.20;;;;;;;17.66;70.05;101098.22;5071533;28;20032;-52
2021/09/04 06:08:29;;;;;;;12.85;10.00;;;;;;;17.66;70.02;101100.00;5054524;28;20025;-52
2021/09/04 06:10:55;;;;;;;12.85;10.02;;;;;;;17.65;70.28;101103.63;5071105;28;20032;-52
2021/09/04 06:13:20;;;;;;;16.27;11.40;;;;;;;17.62;70.20;101099.25;5060713;28;20390;-52
2021/09/04 06:15:46;;;;;;;11.32;9.90;;;;;;;17.64;70.24;101107.22;5055350;28;20021;-53
2021/09/04 06:18:13;;;;;;;10.38;9.18;;;;;;;17.63;70.22;101105.44;5066832;28;20043;-52
2021/09/04 06:20:39;;;;;;;18.30;10.98;;;;;;;17.63;70.13;101108.09;5077617;28;20446;-52
2021/09/04 06:23:05;;;;;;;14.00;9.95;;;;;;;17.62;70.10;101112.59;5067599;28;20059;-52
2021/09/04 06:25:34;;;;;;;12.52;10.55;;;;;;;17.63;69.96;101110.78;5093394;22;20497;-51
2021/09/04 06:27:59;;;;;;;13.95;11.25;;;;;;;17.62;70.17;101106.38;5086275;28;20485;-52
2021/09/04 06:30:25;;;;;;;13.60;11.63;;;;;;;17.60;70.52;101111.75;5088868;28;20066;-52
2021/09/04 06:32:51;;;;;;;11.80;9.55;;;;;;;17.62;70.19;101114.38;5080832;28;20039;-52
2021/09/04 06:35:17;;;;;;;12.65;10.23;;;;;;;17.59;70.13;101112.69;5054033;28;20031;-52
2021/09/04 06:37:42;;;;;;;12.23;10.27;;;;;;;17.60;70.26;101111.75;5071005;28;20056;-52
2021/09/04 06:40:09;;;;;;;13.63;9.85;;;;;;;17.59;70.27;101114.47;5071488;28;20550;-52
2021/09/04 06:42:34;;;;;;;19.13;10.75;;;;;;;17.58;70.30;101116.28;5072905;28;20502;-52
2021/09/04 06:45:00;;;;;;;12.88;10.07;;;;;;;17.58;70.31;101116.28;5074131;28;20090;-52
2021/09/04 06:47:26;;;;;;;13.23;10.27;;;;;;;17.57;70.43;101122.50;5070901;28;20032;-52
2021/09/04 06:49:52;;;;;;;13.88;10.60;;;;;;;17.57;70.26;101119.84;5074885;28;20028;-52
2021/09/04 06:52:17;;;;;;;13.07;10.55;;;;;;;17.57;70.16;101123.41;5042391;28;20020;-52
2021/09/04 06:54:43;;;;;;;15.00;10.88;;;;;;;17.56;70.28;101119.00;5074120;28;20575;-52
2021/09/04 06:57:09;;;;;;;11.88;9.90;;;;;;;17.54;70.52;101123.50;5070474;28;20026;-51
2021/09/04 06:59:35;;;;;;;13.30;10.38;;;;;;;17.54;70.34;101138.63;5068800;28;20055;-51
2021/09/04 07:02:00;;;;;;;11.23;9.88;;;;;;;17.54;70.21;101134.16;5051308;28;20032;-52
2021/09/04 07:04:26;;;;;;;12.65;10.00;;;;;;;17.53;70.46;101137.75;5051418;28;20470;-52
2021/09/04 07:06:52;;;;;;;12.30;9.63;;;;;;;17.53;70.36;101137.75;5070896;28;20046;-52
2021/09/04 07:09:18;;;;;;;18.33;12.05;;;;;;;17.20;71.90;101143.16;5072634;28;20382;-52
2021/09/04 07:11:45;;;;;;;16.70;11.90;;;;;;;16.88;72.94;101145.81;5072498;28;20024;-51
2021/09/04 07:14:11;;;;;;;20.13;13.45;;;;;;;16.79;73.16;101146.97;5067864;28;20119;-53
2021/09/04 07:16:37;;;;;;;18.27;12.35;;;;;;;16.71;73.95;101148.09;5072097;28;20035;-51
2021/09/04 07:19:03;;;;;;;22.42;13.57;;;;;;;16.63;74.10;101145.63;5071301;28;20374;-51
2021/09/04 07:21:29;;;;;;;18.42;12.88;;;;;;;16.49;74.60;101153.97;5090899;22;20459;-53
2021/09/04 07:23:55;;;;;;;21.45;14.07;;;;;;;16.43;75.01;101149.69;5035563;28;20075;-52
2021/09/04 07:26:20;;;;;;;19.30;12.88;;;;;;;16.39;75.13;101156.00;5075002;28;20091;-54
2021/09/04 07:28:46;;;;;;;21.02;12.88;;;;;;;16.37;75.26;101153.38;5065879;28;20028;-53
2021/09/04 07:31:11;;;;;;;20.27;12.63;;;;;;;16.37;75.05;101150.72;5081394;28;20385;-53
2021/09/04 07:33:36;;;;;;;19.23;12.80;;;;;;;16.33;75.30;101149.06;5073760;28;20047;-51
2021/09/04 07:36:08;;;;;;;18.02;12.18;;;;;;;16.25;75.61;101162.56;5076057;28;20085;-52
2021/09/04 07:38:35;;;;;;;18.90;11.77;;;;;;;16.32;75.23;101154.41;5078268;28;20020;-53
2021/09/04 07:41:01;;;;;;;16.85;11.38;;;;;;;16.28;75.36;101157.16;5074636;28;20036;-53
2021/09/04 07:43:26;;;;;;;17.35;11.95;;;;;;;16.28;75.55;101159.81;5073328;28;20046;-53
2021/09/04 07:45:52;;;;;;;18.90;11.57;;;;;;;16.32;75.42;101162.41;5073661;28;20029;-52
2021/09/04 07:48:17;;;;;;;18.23;12.35;;;;;;;16.21;75.78;101150.22;5075366;28;20056;-54
2021/09/04 07:50:42;;;;;;;19.88;13.27;;;;;;;16.06;76.84;101155.94;5072777;28;20020;-53
2021/09/04 07:53:08;;;;;;;19.52;12.32;;;;;;;16.15;76.39;101156.56;5076997;28;20019;-53
2021/09/04 07:55:33;;;;;;;18.05;11.85;;;;;;;16.13;76.50;101162.84;5078251;28;20055;-53
2021/09/04 07:57:58;;;;;;;16.67;11.60;;;;;;;16.08;76.43;101162.09;5076088;28;20035;-53
2021/09/04 08:00:24;;;;;;;17.98;11.45;;;;;;;16.06;76.36;101154.16;5072647;28;20025;-53
2021/09/04 08:02:49;;;;;;;18.80;11.30;;;;;;;16.02;76.62;101156.03;5077787;28;20060;-53
2021/09/04 08:05:24;;;;;;;18.67;12.52;;;;;;;16.03;nan;101159.53;5065851;28;20440;-53
2021/09/04 08:07:49;;;;;;;19.60;11.63;;;;;;;16.06;76.47;101159.47;5071018;28;20024;-52
2021/09/04 08:10:14;;;;;;;16.40;11.70;;;;;;;16.06;76.45;101166.56;5057169;28;20035;-53
2021/09/04 08:12:40;;;;;;;16.75;10.73;;;;;;;16.09;76.09;101166.50;5071706;28;20033;-53
2021/09/04 08:15:06;;;;;;;17.13;11.32;;;;;;;16.08;76.23;101170.09;5073208;28;20023;-53
2021/09/04 08:17:31;;;;;;;14.63;10.27;;;;;;;16.03;76.16;101173.72;5073913;28;20085;-53
2021/09/04 08:19:58;;;;;;;17.13;9.30;;;;;;;16.07;76.13;101173.66;5075990;28;20052;-53
2021/09/04 08:22:23;;;;;;;16.70;9.60;;;;;;;16.02;76.44;101179.97;5071990;28;20037;-50
2021/09/04 08:24:48;;;;;;;15.45;9.50;;;;;;;15.97;76.78;101181.00;5074827;28;20051;-52
2021/09/04 08:27:14;;;;;;;14.23;9.82;;;;;;;15.99;76.52;101174.72;5073755;28;20055;-53
2021/09/04 08:29:39;;;;;;;12.02;9.10;;;;;;;15.89;76.76;101182.00;5078405;28;20107;-53
2021/09/04 08:32:05;;;;;;;14.10;9.18;;;;;;;15.95;76.54;101175.72;5077579;28;20074;-53
2021/09/04 08:34:30;;;;;;;13.18;9.00;;;;;;;15.95;76.62;101186.34;5072126;28;20028;-53
2021/09/04 08:36:56;;;;;;;14.98;9.57;;;;;;;15.90;77.14;101182.88;5070093;28;20028;-53
2021/09/04 08:39:21;;;;;;;17.00;9.35;;;;;;;15.92;77.15;101186.38;5072222;28;20033;-52
2021/09/04 08:41:46;;;;;;;14.75;9.15;;;;;;;15.91;76.83;101190.81;5072170;28;20028;-55
2021/09/04 08:44:12;;;;;;;13.95;9.55;;;;;;;15.85;77.24;101200.72;5068772;28;20085;-53
2021/09/04 08:46:37;;;;;;;12.43;8.65;;;;;;;16.09;76.16;101195.78;5071400;28;20031;-53
2021/09/04 08:49:05;;;;;;;11.48;8.77;;;;;;;16.29;75.31;101208.59;5082326;28;20388;-52
2021/09/04 08:51:31;;;;;;;12.93;7.95;;;;;;;16.38;74.82;101205.69;5052825;28;20034;-54
2021/09/04 08:53:57;;;;;;;16.60;7.70;;;;;;;16.47;74.20;101204.59;5059370;28;20020;-54
2021/09/04 08:56:22;;;;;;;12.60;7.93;;;;;;;16.51;74.05;101206.25;5078541;28;20119;-54
2021/09/04 08:58:48;;;;;;;12.20;7.93;;;;;;;16.55;73.91;101207.06;5056298;28;20724;-54
2021/09/04 09:01:15;;;;;;;13.32;8.38;;;;;;;16.57;73.77;101207.91;5063888;28;20118;-54
2021/09/04 09:03:41;;;;;;;11.57;7.43;;;;;;;16.61;73.60;101209.56;5075111;28;20528;-54
2021/09/04 09:06:07;;;;;;;12.45;8.07;;;;;;;16.61;73.80;101203.38;5080382;28;20117;-54
2021/09/04 09:08:32;;;;;;;10.02;7.47;;;;;;;16.64;73.47;101209.50;5075448;28;20027;-54
2021/09/04 09:11:02;;;;;;;10.38;7.55;;;;;;;16.66;73.47;101209.44;5083487;28;20047;-54
2021/09/04 09:13:28;;;;;;;13.38;7.78;;;;;;;16.65;73.42;101213.91;5070070;28;20062;-54
2021/09/04 09:15:59;;;;;;;12.27;8.50;;;;;;;16.67;73.29;101211.19;5077776;28;20498;-54
2021/09/04 09:18:25;;;;;;;;;;;;;;;16.67;73.34;101212.06;5079385;28;20055;-54
2021/09/04 09:21:03;;;;;;;11.35;8.90;;;;;;;16.68;73.39;101213.81;5085279;28;19950;-51
2021/09/04 09:23:29;;;;;;;13.65;9.25;;;;;;;16.70;73.26;101207.59;5062615;28;20501;-54
2021/09/04 09:25:55;;;;;;;13.20;8.30;;;;;;;16.72;73.23;101209.31;5082187;28;20035;-54
2021/09/04 09:28:23;;;;;;;13.85;9.15;;;;;;;16.72;73.22;101214.63;5046878;28;20032;-54
2021/09/04 09:30:55;;;;;;;13.18;9.50;;;;;;;16.72;73.13;101208.41;5078218;28;20020;-54
2021/09/04 09:33:23;;;;;;;14.40;8.35;;;;;;;16.74;72.93;101212.78;5082171;28;20044;-54
2021/09/04 09:35:52;;;;;;;12.70;9.02;;;;;;;16.76;72.84;101213.63;5077960;28;20499;-54
2021/09/04 09:38:19;;;;;;;13.50;8.70;;;;;;;16.74;73.07;101212.78;5067090;28;20020;-54
2021/09/04 09:40:45;;;;;;;12.48;8.25;;;;;;;16.75;72.97;101217.22;5061770;28;20042;-54
2021/09/04 09:43:18;;;;;;;12.98;8.63;;;;;;;16.76;72.86;101213.63;5076453;28;20033;-53
2021/09/04 09:45:51;;;;;;;10.95;8.50;;;;;;;16.76;72.90;101213.63;5060101;28;20118;-54
2021/09/04 09:48:28;;;;;;;13.00;8.63;;;;;;;16.79;72.74;101220.66;5077661;28;20024;-54
2021/09/04 09:50:55;;;;;;;12.32;8.80;;;;;;;16.78;72.76;101214.44;5057723;28;20112;-52
2021/09/04 09:53:40;;;;;;;12.40;8.32;;;;;;;16.77;72.84;101220.69;5076655;28;20098;-54
2021/09/04 09:56:06;;;;;;;11.82;8.98;;;;;;;16.79;72.74;101220.66;5062275;28;20443;-54
2021/09/04 09:58:36;;;;;;;12.05;9.00;;;;;;;16.80;72.88;101223.28;5072047;28;21242;-53
2021/09/04 10:01:01;;;;;;;13.60;9.32;;;;;;;16.78;72.69;101219.78;5034788;28;21952;-54
2021/09/04 10:03:28;;;;;;;11.68;9.13;;;;;;;16.80;72.63;101217.06;5079095;28;20127;-54
2021/09/04 10:05:54;;;;;;;10.45;7.75;;;;;;;16.79;72.64;101218.00;5082580;28;20147;-54
2021/09/04 10:08:20;;;;;;;13.55;8.45;;;;;;;16.79;72.55;101220.66;5061048;28;20107;-54
2021/09/04 10:10:52;;;;;;;12.95;9.77;;;;;;;16.80;72.69;101220.63;5083360;28;20023;-54
2021/09/04 10:13:17;;;;;;;11.88;8.95;;;;;;;16.80;72.74;101225.06;5078564;28;20035;-54
2021/09/04 10:15:50;;;;;;;11.65;8.80;;;;;;;16.81;72.54;101221.50;5073258;28;20385;-54
2021/09/04 10:18:16;;;;;;;13.85;9.65;;;;;;;16.81;72.65;101218.84;5073001;28;20504;-54
2021/09/04 10:20:45;;;;;;;13.15;9.40;;;;;;;16.82;72.28;101227.69;5045327;28;20064;-54
2021/09/04 10:23:21;;;;;;;12.15;8.75;;;;;;;16.83;72.45;101221.44;5040494;28;20572;-54
2021/09/04 10:25:47;;;;;;;13.38;9.20;;;;;;;16.84;72.56;101221.41;5076323;28;20033;-51
2021/09/04 10:28:12;;;;;;;12.27;8.88;;;;;;;16.84;72.54;101217.88;5072652;28;20094;-52
2021/09/04 10:30:45;;;;;;;13.35;8.20;;;;;;;16.83;72.63;101216.09;5078445;28;20027;-53
2021/09/04 10:33:17;;;;;;;10.70;8.05;;;;;;;16.81;72.50;101218.84;5070528;28;20791;-52
2021/09/04 10:39:08;;;;;;;13.00;9.13;;;;;;;16.83;72.70;101211.66;5074921;28;20093;-53
2021/09/04 10:41:35;;;;;;;12.73;8.32;;;;;;;16.85;72.63;101208.97;5081349;28;20060;-53
2021/09/04 10:44:04;;;;;;;13.88;8.90;;;;;;;16.85;72.30;101219.63;5056404;28;20048;-52
2021/09/04 10:46:30;;;;;;;12.77;9.32;;;;;;;16.84;72.48;101207.22;5063871;28;20115;-52
2021/09/04 10:48:59;;;;;;;13.05;9.32;;;;;;;16.85;72.32;101208.97;5061878;28;20103;-52
2021/09/04 10:51:51;;;;;;;11.32;8.48;;;;;;;16.83;72.33;101216.09;5060176;28;20028;-52
2021/09/04 10:54:54;;;;;;;12.50;10.00;;;;;;;16.84;72.32;101213.41;5043025;28;20517;-51
2021/09/04 10:57:20;;;;;;;13.50;9.23;;;;;;;16.86;72.27;101216.03;5071937;28;20081;-52
2021/09/04 11:00:06;;;;;;;13.40;8.90;;;;;;;16.85;72.48;101222.28;5081701;28;20058;-51
2021/09/04 11:02:39;;;;;;;14.77;9.65;;;;;;;16.82;72.31;101214.38;5061963;28;20035;-53
2021/09/04 11:05:23;;;;;;;14.27;9.20;;;;;;;16.84;72.43;101215.22;5075444;28;20024;-53
2021/09/04 11:07:48;;;;;;;9.48;7.45;;;;;;;16.84;72.38;101213.41;5079109;28;20027;-53
2021/09/04 11:10:24;;;;;;;13.75;9.15;;;;;;;16.86;72.25;101216.03;5062212;28;20118;-52
2021/09/04 11:13:11;;;;;;;13.00;9.25;;;;;;;16.85;72.38;101203.63;5053807;28;20556;-52
2021/09/04 11:15:36;;;;;;;14.52;9.13;;;;;;;16.87;72.12;101197.34;5071566;28;20035;-51
2021/09/04 11:18:02;;;;;;;13.35;10.25;;;;;;;16.85;72.33;101191.19;5077374;28;20036;-53